Time;durP1;ratioP1;P1;durP2;ratioP2;P2;SDS_P1;SDS_P2;PMS_P1;PMS_P2;Temp;Humidity;BMP_temperature;BMP_pressure;BME280_temperature;BME280_humidity;BME280_pressure;Samples;Min_cycle;Max_cycle;Signal;HPM_P1;HPM_P2
2021/05/08 00:00:10;;;;;;;7.75;6.97;;;4.00;80.00;;;;;;5050854;29;20440;-66
2021/05/08 00:02:42;;;;;;;7.15;6.45;;;4.00;80.00;;;;;;5051164;29;20056;-65
2021/05/08 00:05:14;;;;;;;7.30;6.55;;;4.00;79.60;;;;;;5048780;29;20041;-65
2021/05/08 00:07:46;;;;;;;7.30;6.40;;;3.90;80.00;;;;;;5051520;29;20056;-65
2021/05/08 00:10:19;;;;;;;7.32;6.55;;;3.90;79.60;;;;;;5033331;29;20101;-66
2021/05/08 00:12:50;;;;;;;7.10;6.38;;;3.70;79.30;;;;;;5049083;29;20048;-65
2021/05/08 00:15:22;;;;;;;6.85;6.20;;;3.70;78.90;;;;;;5052648;29;20112;-66
2021/05/08 00:17:53;;;;;;;6.78;6.18;;;3.70;79.40;;;;;;5046060;29;20044;-67
2021/05/08 00:20:25;;;;;;;6.80;6.15;;;3.70;79.90;;;;;;5049310;29;20048;-66
2021/05/08 00:22:56;;;;;;;7.22;6.53;;;3.70;80.10;;;;;;5064053;29;20060;-66
2021/05/08 00:25:28;;;;;;;7.53;6.55;;;3.60;80.10;;;;;;5049272;29;20041;-65
2021/05/08 00:27:59;;;;;;;7.32;6.60;;;3.60;79.90;;;;;;5052208;29;20119;-67
2021/05/08 00:30:32;;;;;;;7.07;6.35;;;3.60;79.70;;;;;;5047539;29;20045;-67
2021/05/08 00:33:04;;;;;;;7.07;6.38;;;3.60;79.20;;;;;;5049649;29;20063;-66
2021/05/08 00:35:35;;;;;;;7.32;6.63;;;3.70;79.20;;;;;;5050910;29;20144;-65
2021/05/08 00:38:07;;;;;;;7.18;6.45;;;3.70;79.50;;;;;;5038872;29;20120;-66
2021/05/08 00:40:39;;;;;;;7.78;6.50;;;3.60;79.50;;;;;;5052592;29;20624;-65
2021/05/08 00:43:11;;;;;;;6.95;6.25;;;3.60;79.70;;;;;;5048722;29;20064;-65
2021/05/08 00:45:43;;;;;;;6.88;6.28;;;3.50;79.40;;;;;;5050509;29;20135;-65
2021/05/08 00:48:15;;;;;;;7.13;6.43;;;3.50;79.10;;;;;;5051366;29;20132;-66
2021/05/08 00:50:50;;;;;;;7.10;6.40;;;3.50;79.30;;;;;;5048042;29;20040;-65
2021/05/08 00:53:22;;;;;;;6.82;6.07;;;3.50;79.10;;;;;;5049279;29;20063;-66
2021/05/08 00:55:54;;;;;;;7.07;6.32;;;3.50;79.40;;;;;;5050721;29;20080;-65
2021/05/08 00:58:25;;;;;;;7.13;6.43;;;3.50;79.70;;;;;;5050689;29;20055;-66
2021/05/08 01:00:57;;;;;;;7.20;6.45;;;3.50;79.30;;;;;;5055012;29;20045;-65
2021/05/08 01:03:31;;;;;;;7.78;6.97;;;3.40;78.70;;;;;;5050491;29;20701;-66
2021/05/08 01:06:03;;;;;;;7.35;6.65;;;3.50;78.80;;;;;;5048780;29;20041;-65
2021/05/08 01:08:34;;;;;;;7.55;6.55;;;3.40;79.10;;;;;;5048384;29;20052;-65
2021/05/08 01:11:07;;;;;;;6.70;6.10;;;3.40;79.20;;;;;;5049969;29;20041;-65
2021/05/08 01:13:39;;;;;;;8.75;6.00;;;3.20;78.90;;;;;;5061454;29;20139;-66
2021/05/08 01:16:11;;;;;;;6.50;5.90;;;3.20;79.10;;;;;;5039427;29;20077;-65
2021/05/08 01:18:42;;;;;;;7.22;6.57;;;3.20;79.80;;;;;;5062772;29;20784;-66
2021/05/08 01:21:14;;;;;;;7.05;6.40;;;3.10;79.60;;;;;;5049281;29;20044;-65
2021/05/08 01:23:48;;;;;;;7.53;6.53;;;3.10;80.10;;;;;;5040512;29;20101;-65
2021/05/08 01:26:20;;;;;;;7.72;6.93;;;3.00;80.70;;;;;;5047540;29;20590;-66
2021/05/08 01:28:52;;;;;;;7.00;6.40;;;3.00;80.70;;;;;;5039361;29;20120;-66
2021/05/08 01:31:24;;;;;;;7.20;6.50;;;3.00;80.50;;;;;;5046916;29;20041;-66
2021/05/08 01:33:55;;;;;;;7.63;6.60;;;3.00;80.80;;;;;;5049892;29;20041;-65
2021/05/08 01:36:28;;;;;;;7.50;6.78;;;3.10;80.60;;;;;;5049218;29;20049;-65
2021/05/08 01:39:00;;;;;;;6.85;6.15;;;3.10;79.30;;;;;;5061691;29;20041;-65
2021/05/08 01:41:33;;;;;;;7.38;6.40;;;3.10;79.60;;;;;;5043672;29;20047;-65
2021/05/08 01:44:09;;;;;;;7.80;7.00;;;3.20;79.80;;;;;;5048893;29;20511;-66
2021/05/08 01:46:40;;;;;;;7.78;6.93;;;3.20;79.60;;;;;;5064129;29;20128;-65
2021/05/08 01:49:12;;;;;;;7.80;6.82;;;3.20;79.80;;;;;;5049193;29;20067;-65
2021/05/08 01:51:44;;;;;;;7.70;6.90;;;3.20;79.90;;;;;;5046632;29;20045;-65
2021/05/08 01:54:16;;;;;;;7.47;6.78;;;3.10;79.60;;;;;;5054348;29;20618;-65
2021/05/08 01:56:49;;;;;;;7.38;6.68;;;3.00;79.50;;;;;;5063247;29;20049;-65
2021/05/08 01:59:26;;;;;;;6.80;6.20;;;3.00;79.70;;;;;;5033384;29;20056;-66
2021/05/08 02:01:57;;;;;;;7.38;6.63;;;2.90;80.10;;;;;;5049688;29;20104;-65
2021/05/08 02:04:29;;;;;;;7.57;6.78;;;2.80;80.30;;;;;;5053822;29;20452;-65
2021/05/08 02:07:01;;;;;;;7.20;6.50;;;2.80;80.60;;;;;;5061971;29;20059;-65
2021/05/08 02:09:32;;;;;;;7.93;6.50;;;2.80;80.60;;;;;;5062804;29;20511;-65
2021/05/08 02:12:07;;;;;;;7.22;6.25;;;2.80;80.60;;;;;;5046950;29;20108;-65
2021/05/08 02:14:38;;;;;;;6.97;6.32;;;2.90;80.50;;;;;;5050477;29;20052;-66
2021/05/08 02:17:10;;;;;;;6.93;6.22;;;2.90;81.20;;;;;;5060605;29;20415;-66
2021/05/08 02:19:42;;;;;;;7.55;6.80;;;2.90;81.70;;;;;;5050367;29;20527;-66
2021/05/08 02:22:13;;;;;;;6.93;6.32;;;2.90;80.90;;;;;;5022728;29;20053;-67
2021/05/08 02:24:45;;;;;;;6.75;6.15;;;3.00;81.00;;;;;;5063514;29;20156;-67
2021/05/08 02:27:16;;;;;;;7.00;6.30;;;2.90;80.90;;;;;;5033280;29;20057;-66
2021/05/08 02:29:48;;;;;;;7.53;5.97;;;3.00;80.40;;;;;;5064400;29;20526;-65
2021/05/08 02:32:20;;;;;;;6.93;6.32;;;3.00;80.70;;;;;;5526431;23;20086;-66
2021/05/08 02:34:52;;;;;;;6.82;6.22;;;3.10;80.70;;;;;;5081309;29;20043;-67
2021/05/08 02:37:24;;;;;;;7.07;6.38;;;3.10;80.10;;;;;;5099664;29;20039;-65
2021/05/08 02:39:56;;;;;;;6.40;5.80;;;3.20;79.90;;;;;;5118318;29;20043;-65
2021/05/08 02:42:27;;;;;;;6.95;6.22;;;3.10;79.50;;;;;;5116625;28;20043;-65
2021/05/08 02:45:00;;;;;;;7.97;6.72;;;3.20;79.60;;;;;;5084756;29;20039;-65
2021/05/08 02:47:33;;;;;;;7.50;6.78;;;3.20;79.90;;;;;;5100299;29;20230;-65
2021/05/08 02:50:05;;;;;;;7.43;6.72;;;3.20;79.80;;;;;;5117367;29;20043;-65
2021/05/08 02:52:37;;;;;;;7.72;6.78;;;3.20;79.50;;;;;;5104364;29;20086;-64
2021/05/08 02:55:11;;;;;;;7.97;7.18;;;3.10;79.80;;;;;;5102012;29;20071;-66
2021/05/08 02:57:42;;;;;;;7.55;6.85;;;2.90;79.90;;;;;;5100580;29;20047;-65
2021/05/08 03:00:17;;;;;;;7.13;6.43;;;2.80;80.00;;;;;;5116190;28;20598;-67
2021/05/08 03:02:48;;;;;;;7.30;6.60;;;2.80;80.30;;;;;;5108766;28;20039;-65
2021/05/08 03:05:20;;;;;;;6.78;6.18;;;2.70;80.20;;;;;;5099954;29;20051;-66
2021/05/08 03:07:55;;;;;;;7.40;6.70;;;2.60;81.50;;;;;;5099321;29;20051;-67
2021/05/08 03:10:28;;;;;;;7.20;6.50;;;2.50;81.20;;;;;;5117364;29;20127;-65
2021/05/08 03:13:00;;;;;;;8.00;7.22;;;2.60;81.50;;;;;;5117588;29;20050;-65
2021/05/08 03:15:31;;;;;;;7.38;6.30;;;2.70;81.60;;;;;;5117548;28;20474;-68
2021/05/08 03:18:05;;;;;;;7.40;6.70;;;2.70;82.30;;;;;;5088070;29;20190;-66
2021/05/08 03:20:37;;;;;;;6.88;6.20;;;2.70;82.00;;;;;;5119086;28;20791;-67
2021/05/08 03:23:08;;;;;;;7.22;6.55;;;2.80;82.50;;;;;;5121411;29;20497;-66
2021/05/08 03:25:40;;;;;;;7.03;6.40;;;2.90;82.40;;;;;;5121090;29;20591;-67
2021/05/08 03:28:11;;;;;;;7.30;6.60;;;2.90;82.00;;;;;;5121277;29;20043;-65
2021/05/08 03:30:45;;;;;;;6.63;6.03;;;3.00;81.30;;;;;;5120078;29;20047;-66
2021/05/08 03:33:17;;;;;;;7.18;6.40;;;3.00;81.80;;;;;;5118119;29;20047;-67
2021/05/08 03:35:48;;;;;;;7.50;6.38;;;3.00;81.60;;;;;;5109315;28;20043;-66
2021/05/08 03:38:20;;;;;;;6.50;5.90;;;3.00;80.40;;;;;;5101503;29;20576;-66
2021/05/08 03:40:51;;;;;;;6.43;5.82;;;3.10;80.00;;;;;;5106224;29;20050;-66
2021/05/08 03:43:23;;;;;;;6.82;6.22;;;3.20;79.90;;;;;;5121508;29;20039;-66
2021/05/08 03:45:54;;;;;;;6.85;6.15;;;3.20;79.90;;;;;;5120571;29;20047;-66
2021/05/08 03:48:26;;;;;;;6.55;5.95;;;3.30;80.30;;;;;;5118963;29;20087;-66
2021/05/08 03:50:58;;;;;;;6.65;6.05;;;3.40;80.80;;;;;;5120711;29;20066;-66
2021/05/08 03:53:30;;;;;;;6.68;5.97;;;3.40;81.70;;;;;;5120129;28;20102;-65
2021/05/08 03:56:02;;;;;;;7.15;6.45;;;3.40;81.50;;;;;;5106893;29;20125;-65
2021/05/08 03:58:33;;;;;;;7.15;6.45;;;3.40;81.50;;;;;;5119698;29;20483;-66
2021/05/08 04:01:05;;;;;;;7.63;6.93;;;3.40;81.50;;;;;;5119316;29;20818;-67
2021/05/08 04:03:36;;;;;;;7.47;6.68;;;3.30;82.00;;;;;;5120312;29;20047;-66
2021/05/08 04:06:08;;;;;;;7.72;6.40;;;3.10;82.80;;;;;;5120402;29;20065;-66
2021/05/08 04:08:39;;;;;;;6.97;6.35;;;2.90;82.60;;;;;;5106039;29;20062;-66
2021/05/08 04:11:11;;;;;;;7.00;6.30;;;2.80;81.80;;;;;;5120416;29;20075;-68
2021/05/08 04:13:42;;;;;;;6.88;6.18;;;2.80;82.20;;;;;;5120724;29;20047;-66
2021/05/08 04:16:13;;;;;;;7.03;6.28;;;2.90;82.40;;;;;;5119473;29;20047;-66
2021/05/08 04:18:45;;;;;;;6.57;5.97;;;3.00;82.90;;;;;;5118679;29;20074;-68
2021/05/08 04:21:17;;;;;;;7.25;6.47;;;3.10;83.40;;;;;;5119524;29;20067;-66
2021/05/08 04:23:49;;;;;;;7.35;6.65;;;3.20;82.90;;;;;;5120656;29;20050;-66
2021/05/08 04:26:20;;;;;;;6.93;6.22;;;3.20;82.20;;;;;;5119442;28;20047;-65
2021/05/08 04:28:52;;;;;;;7.07;6.38;;;3.20;81.40;;;;;;5102455;29;20054;-66
2021/05/08 04:31:24;;;;;;;7.00;6.30;;;3.30;81.40;;;;;;5119702;29;20055;-65
2021/05/08 04:33:55;;;;;;;8.02;6.07;;;3.30;81.90;;;;;;5120141;29;20082;-65
2021/05/08 04:36:26;;;;;;;7.28;5.95;;;3.30;81.90;;;;;;5116989;29;20051;-66
2021/05/08 04:38:58;;;;;;;7.03;6.32;;;3.30;81.70;;;;;;5119074;28;20046;-65
2021/05/08 04:41:29;;;;;;;6.40;5.80;;;3.30;81.70;;;;;;5101937;29;20051;-66
2021/05/08 04:44:00;;;;;;;6.97;6.10;;;3.30;81.40;;;;;;5102561;29;20480;-66
2021/05/08 04:46:32;;;;;;;6.45;5.85;;;3.40;81.30;;;;;;5119630;29;20066;-65
2021/05/08 04:49:04;;;;;;;7.05;6.35;;;3.50;81.60;;;;;;5120097;29;20039;-66
2021/05/08 04:51:35;;;;;;;8.50;6.95;;;3.60;81.50;;;;;;5119686;29;20083;-65
2021/05/08 04:54:07;;;;;;;7.10;6.40;;;3.60;81.00;;;;;;5120913;29;20468;-65
2021/05/08 04:56:38;;;;;;;7.15;6.45;;;3.70;81.30;;;;;;5119494;29;20402;-65
2021/05/08 04:59:09;;;;;;;7.40;6.55;;;3.70;81.60;;;;;;5119153;29;20580;-65
2021/05/08 05:01:41;;;;;;;7.32;6.63;;;3.70;80.80;;;;;;5117965;28;20043;-66
2021/05/08 05:04:12;;;;;;;7.32;6.63;;;3.80;80.90;;;;;;5118099;29;20098;-66
2021/05/08 05:06:44;;;;;;;7.47;6.60;;;3.90;81.00;;;;;;5118454;29;20453;-65
2021/05/08 05:09:15;;;;;;;7.50;6.32;;;4.00;80.80;;;;;;5120374;29;20129;-66
2021/05/08 05:11:47;;;;;;;7.22;6.53;;;4.10;81.10;;;;;;5101864;29;20102;-65
2021/05/08 05:14:18;;;;;;;7.03;6.32;;;4.10;80.40;;;;;;5120237;29;20050;-66
2021/05/08 05:16:50;;;;;;;7.43;6.72;;;4.20;79.00;;;;;;5099100;29;20162;-65
2021/05/08 05:19:21;;;;;;;7.68;6.97;;;4.10;80.90;;;;;;5119611;28;21151;-65
2021/05/08 05:21:52;;;;;;;7.53;6.65;;;4.20;80.60;;;;;;5118714;29;20047;-65
2021/05/08 05:24:24;;;;;;;7.28;6.57;;;4.30;80.70;;;;;;5119779;29;20043;-66
2021/05/08 05:26:55;;;;;;;7.00;6.30;;;4.40;80.20;;;;;;5118778;29;20577;-65
2021/05/08 05:29:27;;;;;;;7.22;6.53;;;4.70;79.50;;;;;;5119215;29;20047;-66
2021/05/08 05:31:58;;;;;;;7.10;6.40;;;4.90;78.30;;;;;;5119019;29;20516;-67
2021/05/08 05:34:30;;;;;;;7.57;6.88;;;5.00;77.30;;;;;;5119573;29;20039;-67
2021/05/08 05:37:02;;;;;;;7.60;6.90;;;5.10;77.00;;;;;;5100635;29;20532;-65
2021/05/08 05:39:34;;;;;;;8.68;6.72;;;5.20;76.80;;;;;;5116148;28;20054;-65
2021/05/08 05:42:05;;;;;;;8.23;6.65;;;5.10;76.80;;;;;;5103097;29;20603;-65
2021/05/08 05:44:37;;;;;;;7.32;6.20;;;5.10;76.60;;;;;;5118463;28;20039;-65
2021/05/08 05:47:20;;;;;;;8.27;7.20;;;5.20;76.50;;;;;;5105703;29;20055;-66
2021/05/08 05:49:54;;;;;;;7.97;6.90;;;5.30;77.80;;;;;;5118831;29;20996;-65
2021/05/08 05:52:27;;;;;;;7.25;6.30;;;5.30;78.30;;;;;;5118090;29;20051;-65
2021/05/08 05:54:58;;;;;;;7.68;6.97;;;5.50;77.70;;;;;;5119225;28;20506;-65
2021/05/08 05:57:30;;;;;;;7.53;6.70;;;5.70;77.50;;;;;;5100278;29;20062;-65
2021/05/08 06:00:03;;;;;;;7.25;6.43;;;5.90;76.60;;;;;;5115794;28;20148;-65
2021/05/08 06:02:35;;;;;;;7.97;6.90;;;6.10;75.50;;;;;;5117311;29;20101;-65
2021/05/08 06:05:08;;;;;;;7.32;6.63;;;6.20;74.60;;;;;;5117424;29;20469;-66
2021/05/08 06:07:40;;;;;;;9.43;7.22;;;6.50;75.00;;;;;;5117860;29;20040;-65
2021/05/08 06:10:13;;;;;;;7.90;7.20;;;6.60;74.10;;;;;;5117581;29;20047;-65
2021/05/08 06:12:44;;;;;;;7.47;6.78;;;6.80;73.50;;;;;;5118805;29;20122;-65
2021/05/08 06:15:16;;;;;;;7.60;6.80;;;6.90;73.90;;;;;;5107031;29;20468;-65
2021/05/08 06:17:47;;;;;;;8.05;7.13;;;7.10;74.90;;;;;;5116641;28;20111;-65
2021/05/08 06:20:19;;;;;;;7.97;7.28;;;7.40;73.80;;;;;;5114337;28;20101;-65
2021/05/08 06:22:50;;;;;;;8.60;7.30;;;7.50;72.70;;;;;;5117409;29;20127;-67
2021/05/08 06:25:22;;;;;;;8.07;7.30;;;7.60;71.60;;;;;;5117377;29;20118;-66
2021/05/08 06:27:53;;;;;;;8.07;7.35;;;7.70;72.00;;;;;;5118856;29;20450;-67
2021/05/08 06:30:25;;;;;;;7.68;6.97;;;7.90;70.50;;;;;;5100991;29;20039;-66
2021/05/08 06:32:56;;;;;;;8.02;7.25;;;8.10;70.60;;;;;;5117626;28;20461;-66
2021/05/08 06:35:28;;;;;;;8.07;7.38;;;8.30;70.50;;;;;;5118525;28;20111;-66
2021/05/08 06:37:59;;;;;;;8.00;7.25;;;8.40;69.00;;;;;;5101426;29;20066;-66
2021/05/08 06:40:31;;;;;;;7.72;7.03;;;8.50;69.30;;;;;;5118929;29;20047;-66
2021/05/08 06:43:03;;;;;;;8.30;7.50;;;8.60;70.00;;;;;;5118967;29;20408;-66
2021/05/08 06:45:34;;;;;;;7.97;7.18;;;8.80;69.60;;;;;;5116729;29;20865;-66
2021/05/08 06:48:07;;;;;;;8.07;7.32;;;9.00;68.10;;;;;;5116704;28;20047;-66
2021/05/08 06:50:39;;;;;;;7.65;6.97;;;9.20;66.90;;;;;;5117186;28;20683;-68
2021/05/08 06:53:10;;;;;;;7.45;6.80;;;9.20;66.30;;;;;;5118163;29;20050;-64
2021/05/08 06:55:41;;;;;;;7.60;6.90;;;9.30;64.10;;;;;;5118309;29;20050;-64
2021/05/08 06:58:13;;;;;;;7.65;6.95;;;9.30;65.60;;;;;;5117881;29;20039;-64
2021/05/08 07:00:45;;;;;;;8.00;7.28;;;9.40;66.00;;;;;;5117206;29;20130;-64
2021/05/08 07:03:17;;;;;;;7.32;6.63;;;9.30;67.10;;;;;;5118452;29;20086;-64
2021/05/08 07:05:48;;;;;;;7.55;6.85;;;9.40;65.80;;;;;;5118249;29;20035;-63
2021/05/08 07:08:20;;;;;;;7.45;6.75;;;9.60;64.80;;;;;;5117942;29;20099;-63
2021/05/08 07:10:53;;;;;;;7.90;7.20;;;9.70;64.20;;;;;;5118215;29;20596;-64
2021/05/08 07:13:24;;;;;;;7.90;7.20;;;10.00;64.10;;;;;;5116641;29;20417;-64
2021/05/08 07:15:58;;;;;;;7.78;7.07;;;10.10;62.80;;;;;;5117645;29;20047;-63
2021/05/08 07:18:29;;;;;;;8.18;7.38;;;10.40;63.60;;;;;;5117930;28;20075;-64
2021/05/08 07:21:01;;;;;;;7.88;7.28;;;10.50;60.00;;;;;;5116914;29;20083;-64
2021/05/08 07:23:33;;;;;;;7.85;7.15;;;10.60;57.50;;;;;;5101352;29;20083;-64
2021/05/08 07:26:04;;;;;;;7.97;7.28;;;10.80;57.90;;;;;;5117336;29;20049;-64
2021/05/08 07:28:36;;;;;;;7.88;7.18;;;10.90;56.20;;;;;;5116933;29;20055;-64
2021/05/08 07:31:07;;;;;;;8.45;7.75;;;11.00;58.10;;;;;;5117876;29;20066;-64
2021/05/08 07:33:39;;;;;;;7.90;7.20;;;11.20;57.90;;;;;;5118247;29;20043;-64
2021/05/08 07:36:11;;;;;;;7.88;7.28;;;11.30;58.00;;;;;;5100531;29;20047;-63
2021/05/08 07:38:42;;;;;;;8.52;7.40;;;11.40;57.20;;;;;;5117640;29;20063;-64
2021/05/08 07:41:14;;;;;;;8.18;7.45;;;11.60;55.20;;;;;;5084232;29;20043;-65
2021/05/08 07:43:45;;;;;;;8.32;7.63;;;11.70;55.20;;;;;;5117793;29;20134;-64
2021/05/08 07:46:17;;;;;;;8.32;7.13;;;11.90;57.20;;;;;;5117805;29;20129;-63
2021/05/08 07:48:49;;;;;;;7.90;7.28;;;12.00;56.30;;;;;;5117965;29;20047;-64
2021/05/08 07:51:21;;;;;;;8.10;7.40;;;12.20;53.30;;;;;;5117956;29;20132;-64
2021/05/08 07:53:52;;;;;;;8.63;7.88;;;12.30;58.90;;;;;;5100851;29;20051;-65
2021/05/08 07:56:24;;;;;;;8.80;8.10;;;12.50;56.00;;;;;;5114399;28;20059;-65
2021/05/08 07:58:55;;;;;;;8.77;8.07;;;12.50;55.10;;;;;;5116123;28;20043;-64
2021/05/08 08:01:27;;;;;;;8.55;7.85;;;12.60;54.70;;;;;;5117837;28;20051;-64
2021/05/08 08:03:58;;;;;;;8.68;7.97;;;12.70;52.60;;;;;;5120330;29;20043;-66
2021/05/08 08:06:31;;;;;;;8.52;7.78;;;12.80;55.60;;;;;;5121032;29;20047;-65
2021/05/08 08:09:03;;;;;;;8.70;7.90;;;12.90;47.90;;;;;;5120075;29;20461;-65
2021/05/08 08:11:36;;;;;;;8.98;8.27;;;13.00;56.70;;;;;;5120535;29;20505;-64
2021/05/08 08:14:07;;;;;;;8.40;7.70;;;13.20;49.20;;;;;;5121038;29;20094;-64
2021/05/08 08:16:39;;;;;;;9.20;8.30;;;13.30;49.40;;;;;;5103827;29;20153;-64
2021/05/08 08:19:10;;;;;;;8.75;8.05;;;13.50;54.20;;;;;;5120126;29;20059;-65
2021/05/08 08:21:41;;;;;;;8.52;7.82;;;13.60;49.60;;;;;;5118127;29;20054;-63
2021/05/08 08:24:13;;;;;;;8.20;7.50;;;13.70;50.50;;;;;;5119203;28;20516;-65
2021/05/08 08:26:44;;;;;;;8.98;8.27;;;13.80;48.40;;;;;;5114634;29;20536;-64
2021/05/08 08:29:16;;;;;;;8.82;8.13;;;13.90;47.20;;;;;;5101234;29;20094;-64
2021/05/08 08:31:48;;;;;;;8.98;8.25;;;14.00;52.70;;;;;;5099655;29;20210;-64
2021/05/08 08:34:19;;;;;;;8.75;8.05;;;14.20;52.60;;;;;;5119994;28;20043;-65
2021/05/08 08:36:51;;;;;;;8.40;7.60;;;14.20;43.10;;;;;;5119412;29;20469;-64
2021/05/08 08:39:22;;;;;;;8.70;8.00;;;14.20;41.60;;;;;;5120296;29;20071;-64
2021/05/08 08:41:54;;;;;;;8.85;8.15;;;14.40;48.30;;;;;;5119985;29;20040;-65
2021/05/08 08:44:25;;;;;;;8.70;8.00;;;14.50;45.70;;;;;;5087475;29;20793;-63
2021/05/08 08:46:56;;;;;;;8.73;7.90;;;14.50;44.00;;;;;;5101076;29;20453;-64
2021/05/08 08:49:28;;;;;;;8.60;7.90;;;14.60;45.20;;;;;;5120066;29;20605;-64
2021/05/08 08:52:00;;;;;;;8.75;8.05;;;14.70;47.70;;;;;;5119320;29;20509;-64
2021/05/08 08:54:32;;;;;;;8.60;7.90;;;14.80;40.90;;;;;;5120340;28;20106;-64
2021/05/08 08:57:04;;;;;;;8.43;7.72;;;14.80;43.20;;;;;;5119042;29;20055;-64
2021/05/08 08:59:38;;;;;;;7.72;7.13;;;14.90;43.60;;;;;;5117936;28;20059;-64
2021/05/08 09:02:09;;;;;;;9.10;8.30;;;14.90;41.00;;;;;;5101061;29;20402;-64
2021/05/08 09:04:41;;;;;;;8.52;7.82;;;15.00;43.50;;;;;;5119375;29;20119;-65
2021/05/08 09:07:14;;;;;;;8.80;8.10;;;15.00;45.70;;;;;;5118169;29;20043;-64
2021/05/08 09:09:49;;;;;;;8.65;7.95;;;15.10;47.00;;;;;;5118244;29;20055;-64
2021/05/08 09:12:26;;;;;;;8.85;8.05;;;15.20;44.80;;;;;;5118984;28;20082;-64
2021/05/08 09:14:59;;;;;;;8.48;7.78;;;15.30;46.30;;;;;;5119376;29;20043;-64
2021/05/08 09:17:30;;;;;;;8.50;7.78;;;15.30;44.10;;;;;;5101194;29;20129;-64
2021/05/08 09:20:04;;;;;;;8.55;7.85;;;15.40;42.90;;;;;;5120190;29;20047;-65
2021/05/08 09:22:37;;;;;;;8.68;7.90;;;15.40;43.20;;;;;;5119536;29;20485;-65
2021/05/08 09:25:15;;;;;;;8.60;7.88;;;15.60;46.40;;;;;;5119282;29;20627;-64
2021/05/08 09:27:47;;;;;;;8.73;8.02;;;15.70;46.50;;;;;;5118908;29;20402;-63
2021/05/08 09:30:28;;;;;;;8.73;8.02;;;15.70;47.30;;;;;;5118701;29;20047;-64
2021/05/08 09:33:02;;;;;;;9.07;8.38;;;15.80;46.60;;;;;;5117651;29;20039;-65
2021/05/08 09:35:35;;;;;;;10.00;9.20;;;15.90;50.40;;;;;;5117189;29;20690;-63
2021/05/08 09:38:09;;;;;;;10.52;9.57;;;16.10;38.80;;;;;;5117835;29;20031;-64
2021/05/08 09:40:46;;;;;;;9.30;8.60;;;16.20;45.30;;;;;;5102076;29;20047;-65
2021/05/08 09:43:21;;;;;;;11.07;10.18;;;16.30;43.30;;;;;;5119346;29;20054;-64
2021/05/08 09:45:53;;;;;;;10.38;9.52;;;16.40;38.80;;;;;;5117847;29;20043;-68
2021/05/08 09:48:33;;;;;;;10.10;9.30;;;16.40;40.90;;;;;;5118774;29;20561;-64
2021/05/08 09:51:26;;;;;;;10.05;9.25;;;16.40;39.80;;;;;;5116350;28;20056;-64
2021/05/08 09:54:03;;;;;;;9.73;8.93;;;16.50;39.20;;;;;;5118322;28;20517;-64
2021/05/08 09:56:40;;;;;;;10.50;9.70;;;16.60;38.90;;;;;;5118763;29;20051;-65
2021/05/08 09:59:34;;;;;;;25.80;20.02;;;16.70;42.80;;;;;;5099656;29;20031;-64
2021/05/08 10:02:05;;;;;;;17.02;15.27;;;16.80;36.40;;;;;;5116271;29;20043;-66
2021/05/08 10:04:45;;;;;;;21.73;18.30;;;16.70;36.60;;;;;;5117336;29;20527;-67
2021/05/08 10:07:28;;;;;;;10.85;9.95;;;16.80;34.90;;;;;;5116677;29;20055;-64
2021/05/08 10:10:01;;;;;;;27.00;21.00;;;16.90;39.10;;;;;;5117362;29;20043;-64
2021/05/08 10:12:33;;;;;;;15.95;14.25;;;17.00;35.30;;;;;;5117492;29;20058;-64
2021/05/08 10:15:05;;;;;;;19.05;16.58;;;17.00;35.70;;;;;;5118270;29;20078;-64
2021/05/08 10:17:38;;;;;;;10.82;9.93;;;17.10;35.70;;;;;;5100297;29;20055;-66
2021/05/08 10:20:16;;;;;;;10.23;9.43;;;17.30;36.00;;;;;;5117972;29;20042;-64
2021/05/08 10:22:58;;;;;;;10.40;9.60;;;17.40;34.70;;;;;;5117337;28;20513;-64
2021/05/08 10:25:31;;;;;;;11.18;10.27;;;17.40;34.50;;;;;;5116346;29;20051;-64
2021/05/08 10:28:03;;;;;;;15.07;13.77;;;17.30;37.30;;;;;;5116636;29;20055;-65
2021/05/08 10:30:39;;;;;;;11.43;10.52;;;17.30;33.90;;;;;;5117470;29;20062;-64
2021/05/08 10:33:13;;;;;;;12.48;11.40;;;17.50;34.80;;;;;;5118350;29;20050;-64
2021/05/08 10:35:51;;;;;;;10.63;9.77;;;17.50;32.10;;;;;;5117941;29;20047;-64
2021/05/08 10:38:31;;;;;;;10.85;9.98;;;17.40;32.10;;;;;;5115575;29;20042;-64
2021/05/08 10:41:06;;;;;;;10.77;9.98;;;17.40;33.00;;;;;;5113772;28;20047;-65
2021/05/08 10:43:56;;;;;;;10.15;9.25;;;17.40;33.20;;;;;;5117869;29;20058;-66
2021/05/08 10:46:28;;;;;;;10.55;9.65;;;17.40;34.30;;;;;;5116247;29;20168;-64
2021/05/08 10:49:06;;;;;;;10.50;9.70;;;17.50;34.60;;;;;;5117002;29;20509;-64
2021/05/08 10:51:56;;;;;;;10.73;9.82;;;17.60;33.10;;;;;;5117448;29;20055;-64
2021/05/08 10:54:43;;;;;;;10.63;9.82;;;17.70;35.10;;;;;;5118977;29;20058;-64
2021/05/08 10:57:23;;;;;;;10.80;9.95;;;17.80;32.00;;;;;;5117018;28;20047;-63
2021/05/08 11:00:02;;;;;;;10.13;9.32;;;17.90;31.10;;;;;;5118042;29;20106;-64
2021/05/08 11:02:45;;;;;;;10.73;9.82;;;17.90;29.40;;;;;;5118029;28;20051;-61
2021/05/08 11:05:20;;;;;;;10.02;9.23;;;18.00;28.70;;;;;;5115921;29;20102;-62
2021/05/08 11:07:51;;;;;;;10.50;9.70;;;18.10;32.60;;;;;;5117371;29;20453;-62
2021/05/08 11:10:32;;;;;;;10.52;9.65;;;18.30;29.40;;;;;;5116089;28;20054;-61
2021/05/08 11:13:10;;;;;;;10.25;9.55;;;18.50;33.50;;;;;;5100952;29;20047;-61
2021/05/08 11:18:34;;;;;;;10.48;9.68;;;18.80;30.60;;;;;;5116362;29;20039;-61
2021/05/08 11:21:32;;;;;;;10.93;10.13;;;18.90;28.60;;;;;;5116380;29;20047;-62
2021/05/08 11:24:05;;;;;;;10.80;10.00;;;19.10;31.10;;;;;;5115308;29;20075;-61
2021/05/08 11:26:42;;;;;;;10.55;9.75;;;19.10;28.50;;;;;;5116155;29;20040;-64
2021/05/08 11:29:18;;;;;;;11.02;10.10;;;19.30;30.80;;;;;;5114556;28;20106;-62
2021/05/08 11:31:51;;;;;;;11.05;10.25;;;19.20;29.40;;;;;;5114367;29;20058;-62
2021/05/08 11:34:31;;;;;;;10.85;10.05;;;19.40;29.40;;;;;;5082509;29;20047;-62
2021/05/08 11:37:12;;;;;;;11.07;10.27;;;19.50;28.30;;;;;;5115823;28;20450;-63
2021/05/08 11:39:45;;;;;;;11.43;10.60;;;19.50;27.50;;;;;;5120798;29;20039;-62
2021/05/08 11:42:19;;;;;;;11.27;10.48;;;19.60;28.80;;;;;;5119127;29;20516;-63
2021/05/08 11:44:56;;;;;;;11.15;10.35;;;19.80;27.60;;;;;;5102568;29;20494;-63
2021/05/08 11:47:32;;;;;;;10.98;10.18;;;19.90;28.00;;;;;;5116283;29;20055;-62
2021/05/08 11:50:17;;;;;;;11.48;10.68;;;20.00;28.00;;;;;;5119500;29;20043;-63
2021/05/08 11:52:54;;;;;;;11.20;10.40;;;20.10;28.10;;;;;;5121109;29;20104;-62
2021/05/08 11:55:27;;;;;;;11.68;10.68;;;20.20;26.30;;;;;;5120728;29;20062;-65
2021/05/08 11:58:00;;;;;;;12.13;11.23;;;20.30;27.90;;;;;;5117903;29;20047;-63
2021/05/08 12:00:33;;;;;;;12.10;11.20;;;20.50;30.00;;;;;;5119605;29;20551;-63
2021/05/08 12:03:15;;;;;;;11.68;10.77;;;20.50;27.30;;;;;;5119026;28;20494;-64
2021/05/08 12:05:48;;;;;;;12.52;11.63;;;20.40;27.80;;;;;;5120684;29;20114;-63
2021/05/08 12:08:22;;;;;;;12.20;11.30;;;20.50;27.30;;;;;;5103088;29;20055;-62
2021/05/08 12:10:54;;;;;;;12.27;11.38;;;20.60;27.80;;;;;;5120608;29;20059;-63
2021/05/08 12:13:29;;;;;;;12.15;11.25;;;20.70;28.00;;;;;;5119773;29;20047;-62
2021/05/08 12:16:01;;;;;;;12.50;11.60;;;20.80;27.50;;;;;;5087936;29;20058;-65
2021/05/08 12:18:34;;;;;;;12.15;11.25;;;20.90;26.40;;;;;;5119834;29;20051;-63
2021/05/08 12:21:12;;;;;;;12.90;11.93;;;21.00;28.30;;;;;;5120184;29;20098;-63
2021/05/08 12:23:44;;;;;;;12.43;11.52;;;21.00;27.90;;;;;;5120916;29;20054;-63
2021/05/08 12:26:16;;;;;;;12.85;11.95;;;21.20;28.40;;;;;;5101951;29;20553;-62
2021/05/08 12:28:49;;;;;;;12.40;11.50;;;21.30;26.70;;;;;;5117463;29;20047;-63
2021/05/08 12:31:28;;;;;;;12.77;11.88;;;21.30;26.40;;;;;;5118609;29;20441;-64
2021/05/08 12:34:07;;;;;;;12.53;11.63;;;21.40;25.80;;;;;;5119074;29;20038;-63
2021/05/08 12:36:41;;;;;;;12.13;11.23;;;21.40;27.90;;;;;;5115938;28;20331;-63
2021/05/08 12:39:25;;;;;;;12.63;11.73;;;21.60;26.40;;;;;;5117855;29;20133;-62
2021/05/08 12:42:01;;;;;;;12.65;11.75;;;21.70;26.00;;;;;;5095461;29;20473;-63
2021/05/08 12:44:39;;;;;;;12.75;11.77;;;21.70;24.00;;;;;;5120436;29;20039;-62
2021/05/08 12:47:19;;;;;;;12.68;11.68;;;21.50;25.30;;;;;;5116853;28;20050;-63
2021/05/08 12:50:10;;;;;;;11.93;11.02;;;21.60;25.80;;;;;;5119886;29;20051;-64
2021/05/08 12:53:02;;;;;;;12.63;11.63;;;21.50;24.00;;;;;;5103275;29;20510;-63
2021/05/08 12:55:39;;;;;;;12.40;11.50;;;21.70;26.70;;;;;;5120182;29;20601;-63
2021/05/08 12:58:15;;;;;;;13.07;12.07;;;21.80;28.40;;;;;;5086581;29;20413;-63
2021/05/08 13:00:50;;;;;;;12.32;11.43;;;21.90;26.40;;;;;;5118856;29;20051;-64
2021/05/08 13:03:25;;;;;;;12.10;11.27;;;22.00;25.60;;;;;;5120367;29;20055;-63
2021/05/08 13:05:57;;;;;;;12.70;11.80;;;22.00;24.70;;;;;;5119537;29;20053;-63
2021/05/08 13:08:46;;;;;;;12.65;11.75;;;21.80;24.40;;;;;;5101495;29;20055;-63
2021/05/08 13:11:39;;;;;;;12.83;11.93;;;21.90;27.30;;;;;;5119204;29;20137;-64
2021/05/08 13:14:27;;;;;;;12.60;11.70;;;22.10;26.80;;;;;;5118487;29;20373;-64
2021/05/08 13:17:00;;;;;;;12.40;11.50;;;22.20;24.90;;;;;;5117801;29;20409;-63
2021/05/08 13:19:32;;;;;;;12.70;11.80;;;22.40;25.60;;;;;;5119349;29;20054;-64
2021/05/08 13:22:04;;;;;;;13.23;12.15;;;22.40;25.10;;;;;;5102926;29;20054;-63